createdAt,value
2018-09-26T00:00:04.718Z,65.28
2018-09-26T00:02:35.530Z,64.96
2018-09-26T00:05:04.221Z,65.34
2018-09-26T00:07:32.730Z,64.93
2018-09-26T00:10:01.224Z,65.20
2018-09-26T00:12:29.881Z,65.47
2018-09-26T00:14:58.491Z,64.97
2018-09-26T00:17:27.053Z,65.69
2018-09-26T00:19:55.597Z,65.25
2018-09-26T00:22:24.146Z,65.41
2018-09-26T00:24:53.041Z,65.75
2018-09-26T00:27:21.625Z,65.46
2018-09-26T00:29:50.237Z,65.28
2018-09-26T00:32:18.767Z,65.35
2018-09-26T00:34:47.330Z,65.31
2018-09-26T00:37:15.850Z,65.23
2018-09-26T00:39:44.397Z,65.24
2018-09-26T00:42:13.087Z,65.27
2018-09-26T00:44:41.618Z,65.37
2018-09-26T00:47:10.189Z,65.99
2018-09-26T00:49:38.676Z,65.63
2018-09-26T00:52:07.291Z,65.59
2018-09-26T00:54:35.881Z,65.58
2018-09-26T00:57:04.370Z,65.87
2018-09-26T00:59:32.923Z,65.28
2018-09-26T01:02:01.569Z,65.51
2018-09-26T01:04:30.128Z,65.38
2018-09-26T01:06:58.676Z,65.57
2018-09-26T01:09:27.219Z,65.88
2018-09-26T01:11:55.734Z,65.39
2018-09-26T01:14:24.287Z,65.68
2018-09-26T01:16:52.814Z,66.05
2018-09-26T01:19:21.317Z,66.04
2018-09-26T01:21:49.856Z,66.28
2018-09-26T01:24:18.387Z,66.09
2018-09-26T01:26:46.927Z,65.70
2018-09-26T01:29:15.455Z,65.89
2018-09-26T01:31:43.967Z,66.05
2018-09-26T01:34:12.493Z,66.10
2018-09-26T01:36:41.002Z,65.93
2018-09-26T01:39:10.267Z,65.65
2018-09-26T01:41:38.803Z,65.99
2018-09-26T01:44:07.483Z,66.18
2018-09-26T01:46:36.025Z,65.58
2018-09-26T01:49:04.555Z,65.45
2018-09-26T01:51:33.206Z,65.64
2018-09-26T01:54:01.748Z,66.24
2018-09-26T01:56:30.288Z,65.69
2018-09-26T01:58:58.886Z,65.98
2018-09-26T02:01:27.495Z,65.65
2018-09-26T02:03:56.052Z,65.94
2018-09-26T02:06:24.658Z,64.93
2018-09-26T02:08:53.219Z,65.18
2018-09-26T02:11:21.820Z,65.03
2018-09-26T02:13:50.390Z,64.67
2018-09-26T02:16:18.962Z,64.76
2018-09-26T02:18:47.867Z,64.71
2018-09-26T02:21:16.601Z,65.17
2018-09-26T02:23:45.295Z,65.17
2018-09-26T02:26:14.680Z,64.41
2018-09-26T02:28:43.273Z,64.35
2018-09-26T02:31:11.877Z,64.68
2018-09-26T02:33:40.426Z,64.26
2018-09-26T02:36:09.127Z,64.67
2018-09-26T02:38:37.650Z,63.96
2018-09-26T02:41:06.332Z,64.31
2018-09-26T02:43:34.848Z,63.67
2018-09-26T02:46:03.408Z,63.91
2018-09-26T02:48:37.241Z,63.60
2018-09-26T02:51:05.819Z,63.77
2018-09-26T02:53:34.380Z,64.01
2018-09-26T02:56:04.065Z,63.60
2018-09-26T02:58:32.707Z,64.08
2018-09-26T03:01:01.705Z,64.00
2018-09-26T03:03:30.291Z,63.73
2018-09-26T03:05:58.845Z,63.98
2018-09-26T03:08:27.448Z,63.91
2018-09-26T03:10:56.085Z,63.40
2018-09-26T03:13:24.601Z,63.90
2018-09-26T03:15:53.152Z,63.06
2018-09-26T03:18:21.740Z,63.68
2018-09-26T03:20:50.335Z,63.46
2018-09-26T03:23:18.863Z,63.76
2018-09-26T03:25:47.494Z,63.03
2018-09-26T03:28:16.070Z,63.84
2018-09-26T03:30:44.603Z,63.60
2018-09-26T03:33:13.156Z,63.78
2018-09-26T03:35:41.700Z,63.69
2018-09-26T03:38:10.252Z,63.21
2018-09-26T03:40:38.855Z,63.76
2018-09-26T03:43:08.339Z,63.64
2018-09-26T03:45:36.928Z,63.90
2018-09-26T03:48:06.034Z,63.47
2018-09-26T03:50:34.570Z,63.53
2018-09-26T03:53:03.230Z,63.55
2018-09-26T03:55:31.804Z,63.32
2018-09-26T03:58:00.371Z,63.16
2018-09-26T04:00:28.981Z,63.25
2018-09-26T04:02:57.507Z,63.89
2018-09-26T04:05:26.087Z,64.17
2018-09-26T04:07:54.680Z,63.76
2018-09-26T04:10:24.092Z,63.43
2018-09-26T04:12:52.784Z,63.89
2018-09-26T04:15:21.284Z,63.46
2018-09-26T04:17:49.794Z,63.31
2018-09-26T04:20:18.430Z,63.72
2018-09-26T04:22:47.018Z,63.02
2018-09-26T04:25:15.573Z,62.90
2018-09-26T04:27:44.232Z,63.41
2018-09-26T04:30:15.911Z,63.38
2018-09-26T04:32:45.199Z,62.61
2018-09-26T04:35:13.779Z,62.83
2018-09-26T04:37:42.310Z,62.84
2018-09-26T04:40:11.463Z,62.10
2018-09-26T04:42:40.903Z,62.35
2018-09-26T04:45:09.458Z,62.48
2018-09-26T04:47:37.991Z,61.79
2018-09-26T04:50:06.501Z,62.15
2018-09-26T04:52:35.014Z,62.37
2018-09-26T04:55:03.554Z,61.75
2018-09-26T04:57:32.059Z,62.02
2018-09-26T05:00:00.624Z,61.96
2018-09-26T05:02:29.176Z,62.00
2018-09-26T05:04:57.700Z,61.88
2018-09-26T05:07:26.191Z,61.88
2018-09-26T05:09:54.766Z,61.28
2018-09-26T05:12:23.274Z,61.15
2018-09-26T05:14:52.662Z,61.50
2018-09-26T05:17:21.183Z,61.52
2018-09-26T05:19:49.707Z,61.12
2018-09-26T05:22:18.399Z,61.19
2018-09-26T05:24:46.940Z,61.20
2018-09-26T05:27:15.524Z,60.51
2018-09-26T05:29:44.044Z,61.11
2018-09-26T05:32:12.521Z,60.84
2018-09-26T05:34:41.063Z,60.51
2018-09-26T05:37:09.627Z,60.73
2018-09-26T05:39:38.145Z,60.51
2018-09-26T05:42:06.656Z,60.73
2018-09-26T05:44:35.170Z,60.11
2018-09-26T05:47:03.735Z,59.85
2018-09-26T05:49:32.285Z,59.83
2018-09-26T05:52:00.834Z,59.56
2018-09-26T05:54:29.357Z,59.23
2018-09-26T05:56:57.896Z,58.79
2018-09-26T05:59:26.439Z,58.88
2018-09-26T06:01:54.976Z,58.35
2018-09-26T06:04:23.659Z,58.96
2018-09-26T06:06:52.242Z,58.58
2018-09-26T06:09:20.762Z,59.06
2018-09-26T06:11:49.290Z,58.76
2018-09-26T06:14:17.903Z,58.44
2018-09-26T06:16:46.430Z,58.73
2018-09-26T06:19:14.954Z,58.26
2018-09-26T06:21:43.449Z,58.57
2018-09-26T06:24:11.958Z,58.27
2018-09-26T06:26:40.507Z,60.22
2018-09-26T06:29:09.051Z,60.42
2018-09-26T06:31:37.619Z,60.66
2018-09-26T06:34:06.138Z,61.73
2018-09-26T06:36:34.674Z,60.55
2018-09-26T06:39:03.235Z,59.83
2018-09-26T06:41:31.722Z,60.54
2018-09-26T06:44:00.214Z,61.27
2018-09-26T06:46:28.749Z,63.80
2018-09-26T06:48:57.279Z,61.52
2018-09-26T06:51:25.762Z,62.66
2018-09-26T06:53:54.290Z,63.39
2018-09-26T06:56:22.781Z,63.14
2018-09-26T06:58:51.373Z,63.51
2018-09-26T07:01:19.868Z,63.87
2018-09-26T07:03:48.559Z,64.01
2018-09-26T07:06:17.068Z,64.11
2018-09-26T07:08:45.581Z,63.96
2018-09-26T07:11:14.089Z,63.12
2018-09-26T07:13:42.639Z,63.40
2018-09-26T07:16:11.098Z,63.54
2018-09-26T07:18:39.748Z,62.93
2018-09-26T07:21:08.230Z,62.82
2018-09-26T07:23:36.727Z,62.29
2018-09-26T07:26:05.219Z,62.57
2018-09-26T07:28:33.692Z,62.12
2018-09-26T07:31:02.167Z,63.12
2018-09-26T07:33:30.756Z,62.88
2018-09-26T07:35:59.350Z,62.92
2018-09-26T07:38:27.927Z,62.97
2018-09-26T07:40:56.530Z,62.69
2018-09-26T07:43:25.355Z,62.38
2018-09-26T07:45:53.981Z,62.10
2018-09-26T07:48:22.552Z,62.62
2018-09-26T07:50:51.119Z,62.18
2018-09-26T07:53:19.712Z,62.47
2018-09-26T07:55:48.227Z,63.29
2018-09-26T07:58:16.725Z,61.07
2018-09-26T08:00:45.339Z,61.33
2018-09-26T08:03:13.900Z,61.07
2018-09-26T08:05:42.423Z,60.81
2018-09-26T08:08:11.003Z,60.70
2018-09-26T08:10:39.503Z,60.27
2018-09-26T08:13:08.128Z,60.93
2018-09-26T08:15:36.620Z,61.97
2018-09-26T08:18:05.198Z,62.67
2018-09-26T08:20:33.684Z,62.78
2018-09-26T08:23:02.262Z,62.58
2018-09-26T08:25:30.763Z,62.31
2018-09-26T08:27:59.313Z,63.06
2018-09-26T08:30:27.831Z,62.67
2018-09-26T08:32:56.527Z,62.58
2018-09-26T08:35:25.185Z,63.05
2018-09-26T08:37:53.678Z,61.09
2018-09-26T08:40:22.501Z,61.26
2018-09-26T08:42:50.985Z,60.16
2018-09-26T08:45:19.764Z,56.99
2018-09-26T08:47:48.242Z,55.36
2018-09-26T08:50:16.735Z,54.65
2018-09-26T08:52:45.251Z,52.98
2018-09-26T08:55:13.740Z,52.00
2018-09-26T08:57:42.218Z,50.27
2018-09-26T09:00:10.751Z,50.10
2018-09-26T09:02:39.251Z,52.63
2018-09-26T09:05:07.731Z,53.00
2018-09-26T09:07:36.219Z,54.35
2018-09-26T09:10:04.738Z,54.71
2018-09-26T09:12:33.268Z,54.45
2018-09-26T09:15:01.767Z,54.54
2018-09-26T09:17:30.269Z,54.61
2018-09-26T09:19:58.751Z,54.97
2018-09-26T09:22:27.236Z,55.73
2018-09-26T09:24:56.587Z,56.46
2018-09-26T09:27:26.961Z,57.44
2018-09-26T09:29:55.427Z,57.78
2018-09-26T09:32:23.976Z,57.95
2018-09-26T09:34:52.423Z,57.95
2018-09-26T09:37:20.894Z,58.73
2018-09-26T09:39:49.403Z,58.54
2018-09-26T09:42:17.896Z,58.87
2018-09-26T09:44:46.369Z,59.50
2018-09-26T09:47:14.861Z,58.39
2018-09-26T09:49:43.361Z,58.10
2018-09-26T09:52:11.880Z,58.88
2018-09-26T09:54:40.375Z,59.70
2018-09-26T09:57:08.899Z,60.68
2018-09-26T09:59:37.407Z,61.40
2018-09-26T10:02:05.899Z,61.31
2018-09-26T10:04:34.382Z,60.73
2018-09-26T10:07:04.074Z,61.26
2018-09-26T10:09:32.577Z,63.62
2018-09-26T10:12:01.085Z,64.14
2018-09-26T10:14:29.661Z,64.98
2018-09-26T10:16:58.109Z,65.67
2018-09-26T10:19:26.613Z,66.50
2018-09-26T10:21:55.109Z,66.79
2018-09-26T10:24:23.619Z,67.71
2018-09-26T10:26:52.130Z,67.31
2018-09-26T10:29:20.625Z,68.17
2018-09-26T10:31:49.099Z,68.54
2018-09-26T10:34:17.611Z,69.32
2018-09-26T10:36:46.090Z,69.66
2018-09-26T10:39:14.572Z,69.95
2018-09-26T10:41:43.075Z,70.22
2018-09-26T10:44:11.593Z,70.60
2018-09-26T10:46:40.203Z,69.82
2018-09-26T10:49:08.988Z,70.48
2018-09-26T10:51:37.484Z,71.99
2018-09-26T10:54:05.969Z,71.43
2018-09-26T10:56:34.589Z,71.20
2018-09-26T10:59:02.985Z,72.02
2018-09-26T11:01:31.459Z,72.27
2018-09-26T11:03:59.939Z,73.35
2018-09-26T11:06:28.431Z,74.07
2018-09-26T11:08:56.911Z,73.41
2018-09-26T11:11:25.539Z,74.61
2018-09-26T11:13:54.043Z,74.46
2018-09-26T11:16:22.544Z,74.42
2018-09-26T11:18:51.132Z,74.65
2018-09-26T11:21:19.682Z,75.32
2018-09-26T11:23:48.086Z,75.17
2018-09-26T11:26:16.645Z,74.22
2018-09-26T11:28:45.084Z,74.41
2018-09-26T11:31:13.839Z,74.75
2018-09-26T11:33:42.503Z,74.36
2018-09-26T11:36:11.003Z,73.91
2018-09-26T11:38:39.516Z,73.96
2018-09-26T11:41:08.048Z,73.49
2018-09-26T11:43:36.603Z,73.09
2018-09-26T11:46:05.155Z,74.85
2018-09-26T11:48:33.621Z,73.49
2018-09-26T11:51:02.124Z,73.56
2018-09-26T11:53:30.651Z,73.15
2018-09-26T11:55:59.225Z,72.43
2018-09-26T11:58:27.774Z,73.28
2018-09-26T12:00:56.151Z,73.62
2018-09-26T12:03:24.749Z,72.64
2018-09-26T12:05:53.246Z,70.39
2018-09-26T12:08:21.770Z,68.80
2018-09-26T12:10:50.256Z,68.94
2018-09-26T12:13:18.795Z,69.27
2018-09-26T12:15:47.294Z,71.15
2018-09-26T12:18:15.821Z,70.56
2018-09-26T12:20:44.336Z,71.66
2018-09-26T12:23:12.824Z,70.73
2018-09-26T12:25:41.306Z,70.78
2018-09-26T12:28:09.915Z,71.14
2018-09-26T12:30:38.389Z,72.03
2018-09-26T12:33:06.922Z,72.32
2018-09-26T12:35:35.414Z,71.17
2018-09-26T12:38:04.003Z,71.91
2018-09-26T12:40:32.585Z,73.15
2018-09-26T12:43:01.116Z,73.06
2018-09-26T12:45:30.043Z,73.07
2018-09-26T12:47:58.557Z,72.69
2018-09-26T12:50:27.039Z,71.71
2018-09-26T12:52:55.523Z,71.45
2018-09-26T12:55:24.007Z,70.50
2018-09-26T12:57:52.510Z,71.37
2018-09-26T13:00:21.700Z,70.38
2018-09-26T13:02:50.213Z,71.03
2018-09-26T13:05:18.649Z,69.96
2018-09-26T13:07:47.130Z,70.08
2018-09-26T13:10:15.685Z,68.86
2018-09-26T13:12:44.149Z,68.93
2018-09-26T13:15:12.661Z,69.16
2018-09-26T13:17:41.271Z,68.71
2018-09-26T13:20:09.846Z,69.05
2018-09-26T13:22:38.397Z,69.31
2018-09-26T13:25:06.906Z,68.68
2018-09-26T13:27:35.470Z,68.64
2018-09-26T13:30:04.225Z,68.47
2018-09-26T13:32:32.941Z,68.95
2018-09-26T13:35:01.663Z,68.33
2018-09-26T13:37:31.092Z,68.89
2018-09-26T13:39:59.888Z,68.30
2018-09-26T13:42:28.639Z,68.36
2018-09-26T13:44:57.503Z,68.25
2018-09-26T13:47:26.267Z,68.40
2018-09-26T13:49:54.983Z,67.96
2018-09-26T13:52:23.621Z,68.35
2018-09-26T13:54:52.343Z,68.19
2018-09-26T13:57:21.443Z,68.04
2018-09-26T13:59:50.121Z,67.80
2018-09-26T14:02:18.838Z,68.07
2018-09-26T14:04:47.861Z,68.13
2018-09-26T14:07:16.345Z,68.20
2018-09-26T14:09:44.886Z,68.16
2018-09-26T14:12:13.425Z,67.38
2018-09-26T14:14:41.933Z,67.05
2018-09-26T14:17:10.515Z,67.95
2018-09-26T14:19:39.045Z,67.49
2018-09-26T14:22:07.539Z,67.15
2018-09-26T14:24:36.071Z,67.82
2018-09-26T14:27:04.622Z,68.01
2018-09-26T14:29:33.118Z,67.61
2018-09-26T14:32:01.646Z,67.13
2018-09-26T14:34:30.234Z,67.50
2018-09-26T14:36:58.786Z,67.59
2018-09-26T14:39:27.383Z,67.40
2018-09-26T14:41:55.898Z,67.54
2018-09-26T14:44:24.516Z,67.63
2018-09-26T14:46:52.954Z,67.33
2018-09-26T14:49:21.566Z,68.06
2018-09-26T14:51:50.049Z,67.35
2018-09-26T14:54:18.606Z,67.87
2018-09-26T14:56:47.259Z,67.06
2018-09-26T14:59:15.789Z,68.00
2018-09-26T15:01:44.349Z,67.72
2018-09-26T15:04:12.965Z,68.01
2018-09-26T15:06:41.488Z,67.28
2018-09-26T15:09:10.071Z,67.58
2018-09-26T15:11:38.611Z,67.22
2018-09-26T15:14:07.171Z,67.22
2018-09-26T15:16:35.744Z,67.56
2018-09-26T15:19:04.273Z,66.79
2018-09-26T15:21:32.883Z,66.51
2018-09-26T15:24:01.466Z,66.04
2018-09-26T15:26:30.043Z,65.18
2018-09-26T15:28:58.571Z,62.59
2018-09-26T15:31:27.098Z,61.70
2018-09-26T15:33:55.687Z,59.49
2018-09-26T15:36:24.269Z,57.33
2018-09-26T15:38:52.779Z,59.25
2018-09-26T15:41:21.323Z,57.97
2018-09-26T15:43:49.879Z,56.15
2018-09-26T15:46:18.510Z,56.29
2018-09-26T15:48:46.940Z,56.78
2018-09-26T15:51:15.423Z,55.32
2018-09-26T15:53:43.930Z,56.18
2018-09-26T15:56:12.451Z,56.34
2018-09-26T15:58:40.984Z,55.99
2018-09-26T16:01:09.584Z,55.66
2018-09-26T16:03:38.046Z,54.06
2018-09-26T16:06:06.587Z,53.66
2018-09-26T16:08:35.049Z,53.59
2018-09-26T16:11:03.534Z,53.20
2018-09-26T16:13:32.023Z,52.57
2018-09-26T16:16:00.688Z,52.76
2018-09-26T16:18:29.157Z,52.56
2018-09-26T16:20:57.718Z,52.64
2018-09-26T16:23:26.191Z,52.74
2018-09-26T16:25:54.819Z,52.81
2018-09-26T16:28:23.295Z,51.82
2018-09-26T16:30:51.715Z,53.25
2018-09-26T16:33:20.236Z,53.52
2018-09-26T16:35:48.739Z,53.41
2018-09-26T16:38:17.246Z,53.28
2018-09-26T16:40:45.709Z,52.80
2018-09-26T16:43:14.199Z,53.21
2018-09-26T16:45:42.919Z,52.80
2018-09-26T16:48:11.396Z,51.35
2018-09-26T16:50:39.871Z,51.35
2018-09-26T16:53:08.359Z,51.36
2018-09-26T16:55:36.851Z,52.47
2018-09-26T16:58:05.561Z,51.70
2018-09-26T17:00:34.056Z,51.40
2018-09-26T17:03:02.599Z,53.81
2018-09-26T17:05:31.074Z,54.27
2018-09-26T17:07:59.561Z,54.72
2018-09-26T17:10:28.052Z,55.69
2018-09-26T17:12:56.551Z,56.85
2018-09-26T17:15:25.048Z,57.61
2018-09-26T17:17:53.537Z,56.29
2018-09-26T17:20:22.088Z,56.25
2018-09-26T17:22:50.532Z,56.52
2018-09-26T17:28:22.388Z,54.99
2018-09-26T17:30:50.856Z,55.64
2018-09-26T17:33:19.359Z,55.42
2018-09-26T17:35:47.853Z,53.03
2018-09-26T17:38:16.414Z,53.31
2018-09-26T17:40:44.911Z,54.65
2018-09-26T17:43:13.412Z,55.12
2018-09-26T17:45:41.973Z,55.96
2018-09-26T17:48:10.426Z,56.49
2018-09-26T17:50:38.910Z,57.14
2018-09-26T17:53:07.388Z,57.26
2018-09-26T17:55:35.890Z,57.89
2018-09-26T17:58:04.365Z,57.49
2018-09-26T18:00:32.852Z,58.50
2018-09-26T18:03:01.335Z,58.47
2018-09-26T18:05:29.807Z,58.25
2018-09-26T18:07:58.282Z,58.59
2018-09-26T18:10:26.755Z,58.81
2018-09-26T18:12:55.263Z,58.47
2018-09-26T18:15:23.735Z,59.20
2018-09-26T18:17:52.209Z,58.60
2018-09-26T18:20:20.744Z,59.67
2018-09-26T18:22:49.181Z,59.18
2018-09-26T18:25:17.676Z,59.13
2018-09-26T18:27:46.211Z,59.54
2018-09-26T18:30:14.679Z,59.21
2018-09-26T18:32:43.163Z,59.77
2018-09-26T18:35:11.644Z,59.78
2018-09-26T18:37:40.306Z,59.51
2018-09-26T18:40:08.772Z,59.38
2018-09-26T18:42:37.298Z,60.22
2018-09-26T18:45:06.100Z,59.90
2018-09-26T18:47:34.523Z,59.89
2018-09-26T18:50:02.999Z,60.28
2018-09-26T18:52:31.463Z,60.04
2018-09-26T18:54:59.976Z,60.74
2018-09-26T18:57:28.496Z,60.61
2018-09-26T18:59:56.979Z,60.27
2018-09-26T19:02:25.445Z,60.13
2018-09-26T19:04:54.022Z,60.33
2018-09-26T19:07:22.399Z,60.87
2018-09-26T19:09:50.862Z,60.59
2018-09-26T19:12:19.410Z,61.02
2018-09-26T19:14:47.826Z,61.03
2018-09-26T19:17:16.312Z,61.03
2018-09-26T19:19:44.803Z,61.21
2018-09-26T19:22:13.281Z,60.55
2018-09-26T19:24:41.762Z,60.94
2018-09-26T19:27:10.283Z,61.23
2018-09-26T19:29:38.776Z,61.35
2018-09-26T19:32:07.283Z,61.24
2018-09-26T19:34:35.760Z,61.32
2018-09-26T19:37:04.234Z,61.01
2018-09-26T19:39:32.713Z,60.89
2018-09-26T19:42:01.217Z,61.64
2018-09-26T19:44:29.689Z,61.09
2018-09-26T19:46:58.168Z,61.55
2018-09-26T19:49:26.662Z,61.78
2018-09-26T19:51:55.131Z,61.64
2018-09-26T19:54:23.585Z,62.00
2018-09-26T19:56:52.185Z,61.44
2018-09-26T19:59:20.668Z,61.49
2018-09-26T20:01:49.194Z,62.00
2018-09-26T20:04:17.662Z,62.01
2018-09-26T20:06:46.141Z,62.02
2018-09-26T20:09:14.614Z,62.07
2018-09-26T20:11:43.085Z,61.92
2018-09-26T20:14:11.661Z,62.17
2018-09-26T20:16:40.411Z,62.20
2018-09-26T20:19:08.985Z,62.22
2018-09-26T20:21:37.394Z,62.30
2018-09-26T20:24:05.870Z,62.35
2018-09-26T20:26:34.425Z,62.01
2018-09-26T20:29:02.858Z,61.92
2018-09-26T20:31:31.318Z,62.63
2018-09-26T20:33:59.796Z,62.34
2018-09-26T20:36:28.291Z,62.18
2018-09-26T20:38:56.754Z,61.95
2018-09-26T20:41:25.235Z,62.85
2018-09-26T20:43:53.716Z,62.29
2018-09-26T20:46:22.199Z,62.18
2018-09-26T20:48:50.674Z,62.28
2018-09-26T20:51:19.155Z,62.44
2018-09-26T20:53:47.663Z,62.87
2018-09-26T20:56:16.139Z,62.96
2018-09-26T20:58:44.619Z,62.58
2018-09-26T21:01:13.106Z,62.85
2018-09-26T21:03:41.574Z,63.11
2018-09-26T21:06:10.048Z,63.07
2018-09-26T21:08:38.514Z,62.46
2018-09-26T21:11:07.015Z,63.22
2018-09-26T21:13:35.497Z,62.70
2018-09-26T21:16:03.990Z,62.83
2018-09-26T21:18:32.483Z,62.85
2018-09-26T21:21:00.949Z,63.25
2018-09-26T21:23:29.414Z,63.13
2018-09-26T21:25:57.899Z,62.49
2018-09-26T21:28:26.451Z,62.65
2018-09-26T21:30:54.931Z,63.34
2018-09-26T21:33:23.422Z,63.14
2018-09-26T21:35:51.895Z,62.79
2018-09-26T21:38:20.355Z,63.62
2018-09-26T21:40:48.846Z,63.18
2018-09-26T21:43:17.328Z,63.67
2018-09-26T21:45:45.787Z,63.74
2018-09-26T21:48:14.279Z,63.00
2018-09-26T21:50:43.534Z,63.78
2018-09-26T21:53:12.018Z,63.76
2018-09-26T21:55:40.494Z,63.84
2018-09-26T21:58:09.012Z,63.79
2018-09-26T22:00:41.686Z,63.65
2018-09-26T22:03:10.150Z,63.70
2018-09-26T22:05:38.610Z,63.98
2018-09-26T22:08:07.111Z,63.75
2018-09-26T22:10:35.583Z,63.42
2018-09-26T22:13:04.055Z,63.44
2018-09-26T22:15:32.549Z,63.94
2018-09-26T22:18:01.013Z,63.55
2018-09-26T22:20:29.499Z,63.70
2018-09-26T22:22:57.970Z,64.27
2018-09-26T22:25:26.460Z,63.67
2018-09-26T22:27:54.943Z,63.58
2018-09-26T22:30:23.410Z,63.64
2018-09-26T22:32:51.902Z,63.93
2018-09-26T22:35:20.379Z,64.29
2018-09-26T22:37:48.851Z,64.16
2018-09-26T22:40:17.335Z,64.16
2018-09-26T22:42:45.802Z,63.87
2018-09-26T22:45:14.274Z,63.78
2018-09-26T22:47:42.745Z,64.28
2018-09-26T22:50:11.247Z,63.86
2018-09-26T22:52:39.731Z,63.79
2018-09-26T22:55:08.224Z,64.31
2018-09-26T22:57:36.690Z,63.92
2018-09-26T23:00:05.220Z,63.92
2018-09-26T23:02:33.713Z,64.60
2018-09-26T23:05:02.202Z,64.54
2018-09-26T23:07:30.712Z,64.09
2018-09-26T23:09:59.212Z,64.46
2018-09-26T23:12:27.695Z,64.21
2018-09-26T23:14:56.220Z,64.77
2018-09-26T23:17:24.700Z,64.63
2018-09-26T23:19:53.209Z,64.48
2018-09-26T23:22:21.679Z,64.27
2018-09-26T23:24:50.163Z,64.70
2018-09-26T23:27:18.633Z,64.75
2018-09-26T23:29:47.106Z,64.72
2018-09-26T23:32:15.598Z,64.82
2018-09-26T23:34:44.067Z,64.84
2018-09-26T23:37:12.553Z,64.62
2018-09-26T23:39:41.027Z,64.48
2018-09-26T23:42:09.504Z,64.95
2018-09-26T23:44:38.011Z,64.45
2018-09-26T23:47:06.521Z,64.99
2018-09-26T23:49:34.981Z,64.55
2018-09-26T23:52:03.459Z,64.78
2018-09-26T23:54:32.004Z,64.60
2018-09-26T23:57:00.539Z,65.09
2018-09-26T23:59:29.003Z,65.25
